Terminal Aerodrome Forecast
Issued by NWS

Home | Current Version | Previous Version | Text Only | Print | Product List | Glossary On
Versions: 1 2 3 4 5 6 7 8 9 10 11 12 13 14 15 16 17 18 19 20 21 22
000
FTUS43 KDVN 242300
TAFBRL
TAF
KBRL 242326Z 2500/2524 29010KT P6SM BKN040
     FM250200 30006KT P6SM SKC
     FM251200 08006KT P6SM OVC100
     FM251900 07006KT 2SM -SN BR OVC007=

USA.gov is the U.S. government's official web portal to all federal, state and local government web resources and services.